Time;durP1;ratioP1;P1;durP2;ratioP2;P2;SDS_P1;SDS_P2;PMS_P1;PMS_P2;Temp;Humidity;BMP_temperature;BMP_pressure;BME280_temperature;BME280_humidity;BME280_pressure;Samples;Min_cycle;Max_cycle;Signal;HPM_P1;HPM_P2
2023/09/20 00:01:52;;;;;;;11.75;3.70;;;16.90;99.90;;;;;;4994358;28;20488;-72
2023/09/20 00:04:18;;;;;;;10.27;4.03;;;16.90;99.90;;;;;;4972841;28;20042;-73
2023/09/20 00:06:45;;;;;;;10.60;3.22;;;16.90;99.90;;;;;;4994048;28;20165;-73
2023/09/20 00:09:13;;;;;;;12.38;4.10;;;16.90;99.90;;;;;;4993609;28;20085;-73
2023/09/20 00:11:40;;;;;;;11.30;3.60;;;16.90;99.90;;;;;;4993621;28;20045;-73
2023/09/20 00:14:06;;;;;;;13.00;4.10;;;17.00;99.90;;;;;;4993472;28;20527;-73
2023/09/20 00:16:31;;;;;;;8.35;3.25;;;17.00;99.90;;;;;;4975212;28;20051;-73
2023/09/20 00:18:57;;;;;;;10.57;3.65;;;17.00;99.90;;;;;;4976548;28;20481;-73
2023/09/20 00:21:23;;;;;;;9.20;3.50;;;17.00;99.90;;;;;;4993414;28;20448;-73
2023/09/20 00:23:50;;;;;;;11.15;3.70;;;17.00;99.90;;;;;;4993894;28;20047;-72
2023/09/20 00:26:18;;;;;;;14.25;3.58;;;17.00;99.90;;;;;;4993775;28;20034;-73
2023/09/20 00:28:48;;;;;;;16.02;3.90;;;17.00;99.90;;;;;;4971117;28;20101;-73
2023/09/20 00:31:15;;;;;;;10.57;3.75;;;17.00;99.90;;;;;;4976529;28;20475;-73
2023/09/20 00:33:41;;;;;;;10.00;3.35;;;17.10;99.90;;;;;;4990112;28;20042;-73
2023/09/20 00:36:06;;;;;;;11.50;3.20;;;17.10;99.90;;;;;;4992806;28;20038;-73
2023/09/20 00:38:32;;;;;;;12.38;3.22;;;17.10;99.90;;;;;;4976596;28;20038;-72
2023/09/20 00:40:58;;;;;;;6.90;2.80;;;17.10;99.90;;;;;;4976200;28;20054;-73
2023/09/20 00:43:24;;;;;;;10.88;3.80;;;17.10;99.90;;;;;;4993093;28;20117;-71
2023/09/20 00:45:51;;;;;;;9.15;3.47;;;17.10;99.90;;;;;;4972887;28;20122;-72
2023/09/20 00:48:17;;;;;;;8.77;3.83;;;17.10;99.90;;;;;;4959954;28;20128;-73
2023/09/20 00:50:43;;;;;;;11.13;3.35;;;17.10;99.90;;;;;;4998425;28;20070;-72
2023/09/20 00:53:13;;;;;;;8.75;3.85;;;17.10;99.90;;;;;;4993307;28;20038;-72
2023/09/20 00:55:40;;;;;;;10.18;3.30;;;17.10;99.90;;;;;;4989890;28;20039;-73
2023/09/20 00:58:12;;;;;;;13.00;3.70;;;17.10;99.90;;;;;;4991490;28;20648;-73
2023/09/20 01:00:40;;;;;;;11.90;3.33;;;17.10;99.90;;;;;;4990791;28;20525;-73
2023/09/20 01:03:06;;;;;;;10.52;3.50;;;17.10;99.90;;;;;;4992342;28;20043;-73
2023/09/20 01:05:37;;;;;;;8.63;3.10;;;17.20;99.90;;;;;;4991955;28;20038;-73
2023/09/20 01:08:03;;;;;;;9.00;3.88;;;17.20;99.90;;;;;;4993689;28;20057;-72
2023/09/20 01:10:31;;;;;;;10.35;3.83;;;17.20;99.90;;;;;;4992936;28;20050;-73
2023/09/20 01:12:58;;;;;;;11.40;3.40;;;17.20;99.90;;;;;;4975738;28;20188;-73
2023/09/20 01:15:26;;;;;;;11.45;3.75;;;17.20;99.90;;;;;;4974068;28;20104;-73
2023/09/20 01:17:55;;;;;;;10.77;3.35;;;17.20;99.90;;;;;;4974686;28;20497;-73
2023/09/20 01:20:21;;;;;;;9.85;3.13;;;17.20;99.90;;;;;;4992002;28;20464;-72
2023/09/20 01:22:47;;;;;;;8.50;3.20;;;17.20;99.90;;;;;;4992870;28;20065;-72
2023/09/20 01:25:28;;;;;;;9.07;3.22;;;17.20;99.90;;;;;;4974850;28;20034;-73
2023/09/20 01:27:56;;;;;;;9.57;3.42;;;17.20;99.90;;;;;;4975736;28;20042;-73
2023/09/20 01:30:27;;;;;;;11.52;3.55;;;17.20;99.90;;;;;;4972742;28;20041;-73
2023/09/20 01:32:57;;;;;;;9.32;2.97;;;17.20;99.90;;;;;;4992465;28;20401;-72
2023/09/20 01:35:24;;;;;;;11.07;3.42;;;17.20;99.90;;;;;;4989421;28;20038;-70
2023/09/20 01:37:51;;;;;;;10.68;3.25;;;17.20;99.90;;;;;;4988312;28;20038;-73
2023/09/20 01:40:18;;;;;;;9.55;3.30;;;17.20;99.90;;;;;;4990365;28;20836;-70
2023/09/20 01:42:48;;;;;;;16.63;3.72;;;17.20;99.90;;;;;;4988133;28;20053;-72
2023/09/20 01:45:16;;;;;;;9.68;3.03;;;17.20;99.90;;;;;;4991551;28;20073;-70
2023/09/20 01:47:47;;;;;;;9.02;2.78;;;17.20;99.90;;;;;;4981752;28;20054;-72
2023/09/20 01:50:19;;;;;;;12.35;3.38;;;17.20;99.90;;;;;;4986791;28;20054;-73
2023/09/20 01:52:49;;;;;;;8.25;2.95;;;17.20;99.90;;;;;;4987053;28;20085;-73
2023/09/20 01:55:21;;;;;;;13.57;3.05;;;17.20;99.90;;;;;;4988900;28;20042;-72
2023/09/20 01:57:54;;;;;;;10.20;3.40;;;17.20;99.90;;;;;;4989087;28;20053;-72
2023/09/20 02:00:29;;;;;;;9.07;3.20;;;17.30;99.90;;;;;;4974099;28;20053;-72
2023/09/20 02:02:57;;;;;;;11.07;3.35;;;17.20;99.90;;;;;;4977114;28;20042;-73
2023/09/20 02:05:26;;;;;;;11.00;3.45;;;17.30;99.90;;;;;;4974137;28;20038;-72
2023/09/20 02:07:54;;;;;;;11.70;3.67;;;17.30;99.90;;;;;;4992004;28;20038;-73
2023/09/20 02:10:21;;;;;;;13.45;3.55;;;17.30;99.90;;;;;;4990963;28;20042;-73
2023/09/20 02:12:54;;;;;;;9.02;3.10;;;17.30;99.90;;;;;;4974330;28;20088;-73
2023/09/20 02:15:21;;;;;;;7.85;3.00;;;17.30;99.90;;;;;;4991240;28;20042;-71
2023/09/20 02:17:47;;;;;;;9.30;2.97;;;17.20;99.90;;;;;;4970183;28;20046;-72
2023/09/20 02:20:23;;;;;;;12.60;2.83;;;17.30;99.90;;;;;;4990906;28;20493;-72
2023/09/20 02:22:51;;;;;;;8.60;3.15;;;17.30;99.90;;;;;;4991829;28;20038;-72
2023/09/20 02:25:24;;;;;;;11.15;3.90;;;17.20;99.90;;;;;;4990756;28;20497;-71
2023/09/20 02:27:52;;;;;;;9.23;3.17;;;17.30;99.90;;;;;;4990764;28;20473;-72
2023/09/20 02:30:19;;;;;;;15.07;3.58;;;17.30;99.90;;;;;;4973239;28;20397;-72
2023/09/20 02:32:52;;;;;;;11.75;3.42;;;17.30;99.90;;;;;;4972031;28;20053;-72
2023/09/20 02:35:19;;;;;;;12.50;3.08;;;17.20;99.90;;;;;;4991106;28;20038;-71
2023/09/20 02:37:46;;;;;;;7.90;3.35;;;17.30;99.90;;;;;;4973807;28;20635;-72
2023/09/20 02:40:13;;;;;;;13.63;3.35;;;17.20;99.90;;;;;;4973144;28;20393;-72
2023/09/20 02:42:52;;;;;;;8.02;3.20;;;17.20;99.90;;;;;;4990627;28;20084;-72
2023/09/20 02:45:19;;;;;;;9.85;3.47;;;17.20;99.90;;;;;;4968633;28;20072;-72
2023/09/20 02:47:49;;;;;;;11.60;3.58;;;17.20;99.90;;;;;;4973504;28;20051;-72
2023/09/20 02:50:19;;;;;;;9.35;3.40;;;17.20;99.90;;;;;;4990846;28;20038;-72
2023/09/20 02:52:47;;;;;;;9.65;3.08;;;17.20;99.90;;;;;;4991151;28;20042;-72
2023/09/20 02:55:14;;;;;;;9.07;3.25;;;17.20;99.90;;;;;;4988207;28;20062;-72
2023/09/20 02:57:41;;;;;;;9.05;3.58;;;17.20;99.90;;;;;;4972873;28;20089;-72
2023/09/20 03:00:18;;;;;;;10.27;3.40;;;17.20;99.90;;;;;;4973352;28;20046;-72
2023/09/20 03:02:45;;;;;;;9.65;3.60;;;17.20;99.90;;;;;;4988302;28;20042;-72
2023/09/20 03:05:16;;;;;;;10.57;3.45;;;17.20;99.90;;;;;;4996678;22;20070;-81
2023/09/20 03:07:45;;;;;;;12.68;3.70;;;17.20;99.90;;;;;;4997962;28;20528;-79
2023/09/20 03:10:12;;;;;;;10.20;3.58;;;17.20;99.90;;;;;;4997156;28;20046;-79
2023/09/20 03:12:40;;;;;;;10.10;3.53;;;17.20;99.90;;;;;;5015975;28;20030;-79
2023/09/20 03:15:10;;;;;;;12.57;3.67;;;17.10;99.90;;;;;;4995815;28;20469;-79
2023/09/20 03:17:36;;;;;;;9.15;3.10;;;17.10;99.90;;;;;;5000598;28;20052;-79
2023/09/20 03:20:07;;;;;;;8.00;3.30;;;17.20;99.90;;;;;;4994380;28;20053;-79
2023/09/20 03:22:36;;;;;;;12.90;3.60;;;17.10;99.90;;;;;;4991664;28;20510;-79
2023/09/20 03:25:04;;;;;;;11.07;4.20;;;17.10;99.90;;;;;;5002661;28;20591;-79
2023/09/20 03:27:30;;;;;;;13.10;3.67;;;17.00;99.90;;;;;;5012174;28;20132;-79
2023/09/20 03:29:57;;;;;;;11.40;3.65;;;17.00;99.90;;;;;;4999049;28;20037;-79
2023/09/20 03:32:22;;;;;;;9.15;3.40;;;17.00;99.90;;;;;;5000218;28;20050;-79
2023/09/20 03:34:48;;;;;;;9.50;3.20;;;16.90;99.90;;;;;;4995811;28;20782;-79
2023/09/20 03:37:14;;;;;;;9.95;3.53;;;16.90;99.90;;;;;;4995518;28;20100;-79
2023/09/20 03:39:41;;;;;;;10.45;3.95;;;16.90;99.90;;;;;;4994200;28;20057;-79
2023/09/20 03:42:11;;;;;;;9.90;3.25;;;16.90;99.90;;;;;;5008409;28;20133;-79
2023/09/20 03:44:38;;;;;;;14.20;3.53;;;16.80;99.90;;;;;;4999608;28;20041;-79
2023/09/20 03:47:05;;;;;;;9.13;3.28;;;16.80;99.90;;;;;;5001258;28;20046;-79
2023/09/20 03:49:31;;;;;;;14.63;4.25;;;16.80;99.90;;;;;;4994914;28;20049;-79
2023/09/20 03:51:59;;;;;;;11.30;3.78;;;17.00;99.90;;;;;;4998777;28;20042;-80
2023/09/20 03:54:25;;;;;;;10.60;3.53;;;16.80;99.90;;;;;;5003582;28;20030;-79
2023/09/20 03:56:51;;;;;;;8.63;3.03;;;16.70;99.90;;;;;;4991871;28;20486;-79
2023/09/20 03:59:17;;;;;;;8.32;3.10;;;16.70;99.90;;;;;;4997557;28;20053;-79
2023/09/20 04:01:43;;;;;;;10.88;3.63;;;16.60;99.90;;;;;;4985502;28;20469;-79
2023/09/20 04:04:08;;;;;;;12.00;4.10;;;16.60;99.90;;;;;;4978994;28;20122;-79
2023/09/20 04:06:34;;;;;;;11.80;3.60;;;16.60;99.90;;;;;;4997800;28;20124;-79
2023/09/20 04:09:09;;;;;;;10.90;3.90;;;16.50;99.90;;;;;;4994194;28;20049;-79
2023/09/20 04:11:38;;;;;;;10.55;3.65;;;16.50;99.90;;;;;;4997253;28;20480;-79
2023/09/20 04:14:06;;;;;;;13.55;3.67;;;16.50;99.90;;;;;;4996299;28;20056;-78
2023/09/20 04:16:31;;;;;;;8.25;3.70;;;16.50;99.90;;;;;;4994278;28;20093;-80
2023/09/20 04:18:57;;;;;;;9.27;3.40;;;16.40;99.90;;;;;;4988382;28;20069;-78
2023/09/20 04:21:24;;;;;;;10.15;3.63;;;16.40;99.90;;;;;;4995590;28;20042;-78
2023/09/20 04:23:50;;;;;;;8.00;3.22;;;16.40;99.90;;;;;;4991899;28;20046;-79
2023/09/20 04:26:15;;;;;;;10.68;3.47;;;16.40;99.90;;;;;;4993059;28;20508;-79
2023/09/20 04:28:41;;;;;;;10.10;3.55;;;16.30;99.90;;;;;;4995281;28;20649;-80
2023/09/20 04:31:08;;;;;;;12.88;4.25;;;16.30;99.90;;;;;;5011156;28;20050;-79
2023/09/20 04:33:35;;;;;;;11.07;3.53;;;16.30;99.90;;;;;;5003674;28;20045;-79
2023/09/20 04:36:04;;;;;;;10.95;3.72;;;16.30;99.90;;;;;;4999390;28;20041;-81
2023/09/20 04:38:30;;;;;;;12.38;3.97;;;16.20;99.90;;;;;;4999394;28;20033;-79
2023/09/20 04:40:56;;;;;;;10.90;3.72;;;16.20;99.90;;;;;;5023430;28;20102;-79
2023/09/20 04:43:22;;;;;;;9.27;3.60;;;16.20;99.90;;;;;;5003876;28;20045;-79
2023/09/20 04:45:47;;;;;;;9.68;3.80;;;16.20;99.90;;;;;;4982688;28;20386;-79
2023/09/20 04:48:13;;;;;;;12.77;3.58;;;16.10;99.90;;;;;;4998371;28;20042;-79
2023/09/20 04:50:38;;;;;;;9.18;3.40;;;16.10;99.90;;;;;;5016230;28;20042;-79
2023/09/20 04:53:04;;;;;;;9.25;3.53;;;16.10;99.90;;;;;;5008490;28;20086;-79
2023/09/20 04:55:33;;;;;;;10.65;3.60;;;16.10;99.90;;;;;;5020347;28;20061;-79
2023/09/20 04:58:02;;;;;;;11.25;4.05;;;16.10;99.90;;;;;;4990729;28;20132;-79
2023/09/20 05:00:33;;;;;;;12.70;3.83;;;16.10;99.90;;;;;;4998448;28;20050;-79
2023/09/20 05:03:00;;;;;;;6.93;3.13;;;16.10;99.90;;;;;;5017483;28;20393;-79
2023/09/20 05:05:26;;;;;;;14.70;4.18;;;16.00;99.90;;;;;;4999422;28;20042;-78
2023/09/20 05:07:52;;;;;;;8.35;3.10;;;16.00;99.90;;;;;;5001911;28;20134;-79
2023/09/20 05:10:18;;;;;;;12.82;4.10;;;16.00;99.90;;;;;;5001880;28;20568;-78
2023/09/20 05:12:44;;;;;;;14.52;3.63;;;16.00;99.90;;;;;;5014682;28;20128;-78
2023/09/20 05:15:13;;;;;;;10.88;3.45;;;15.90;99.90;;;;;;5016698;28;20038;-78
2023/09/20 05:17:39;;;;;;;7.45;3.30;;;15.90;99.90;;;;;;4998286;28;20038;-78
2023/09/20 05:20:06;;;;;;;9.52;3.53;;;15.90;99.90;;;;;;4997750;28;20042;-78
2023/09/20 05:22:33;;;;;;;12.48;3.50;;;15.90;99.90;;;;;;5000677;28;20053;-78
2023/09/20 05:24:59;;;;;;;10.35;3.38;;;15.90;99.90;;;;;;5001011;28;20038;-77
2023/09/20 05:27:24;;;;;;;9.05;2.90;;;15.90;99.90;;;;;;4997865;28;20050;-78
2023/09/20 05:29:53;;;;;;;11.98;3.42;;;15.90;99.90;;;;;;4999411;28;20042;-78
2023/09/20 05:32:19;;;;;;;9.70;3.30;;;15.90;99.90;;;;;;4997003;28;20054;-78
2023/09/20 05:34:46;;;;;;;9.13;3.40;;;15.90;99.90;;;;;;4999597;28;20050;-78
2023/09/20 05:37:12;;;;;;;12.80;3.58;;;15.90;99.90;;;;;;5001668;28;20077;-78
2023/09/20 05:39:38;;;;;;;8.68;3.33;;;15.90;99.90;;;;;;4997611;28;20076;-81
2023/09/20 05:42:05;;;;;;;8.70;3.45;;;15.90;99.90;;;;;;4997267;28;20034;-80
2023/09/20 05:44:31;;;;;;;9.02;3.13;;;15.90;99.90;;;;;;4996305;28;20109;-80
2023/09/20 05:46:58;;;;;;;10.80;3.50;;;15.90;99.90;;;;;;4997889;28;20041;-80
2023/09/20 05:49:24;;;;;;;13.90;3.60;;;15.90;99.90;;;;;;4994629;28;20046;-79
2023/09/20 05:51:52;;;;;;;7.03;3.38;;;15.90;99.90;;;;;;4996800;28;20049;-80
2023/09/20 05:54:21;;;;;;;8.13;3.30;;;15.90;99.90;;;;;;4996094;28;20042;-80
2023/09/20 05:56:47;;;;;;;7.63;3.08;;;15.90;99.90;;;;;;4996901;28;20528;-80
2023/09/20 05:59:13;;;;;;;7.80;3.45;;;15.90;99.90;;;;;;5000943;28;20042;-81
2023/09/20 06:01:41;;;;;;;9.93;3.42;;;15.90;99.90;;;;;;4995360;28;20053;-80
2023/09/20 06:04:09;;;;;;;10.95;3.97;;;16.00;99.90;;;;;;5003720;28;20056;-80
2023/09/20 06:06:38;;;;;;;8.60;3.30;;;15.90;99.90;;;;;;4998324;28;20042;-79
2023/09/20 06:09:04;;;;;;;8.75;3.60;;;16.00;99.90;;;;;;4996794;28;20077;-80
2023/09/20 06:11:30;;;;;;;10.68;3.75;;;16.00;99.90;;;;;;4995800;28;20041;-80
2023/09/20 06:13:56;;;;;;;8.63;3.10;;;16.00;99.90;;;;;;4991504;28;20057;-80
2023/09/20 06:16:22;;;;;;;9.77;3.40;;;16.00;99.90;;;;;;4993706;28;20037;-80
2023/09/20 06:18:51;;;;;;;7.80;3.40;;;16.00;99.90;;;;;;4991430;28;20042;-80
2023/09/20 06:21:19;;;;;;;9.80;3.67;;;16.10;99.90;;;;;;4994239;28;20046;-79
2023/09/20 06:23:45;;;;;;;14.40;4.22;;;16.10;99.90;;;;;;4995035;28;20097;-80
2023/09/20 06:26:12;;;;;;;11.10;3.97;;;16.10;99.90;;;;;;4994317;28;20038;-79
2023/09/20 06:28:41;;;;;;;11.55;3.47;;;16.20;99.90;;;;;;5001654;28;20052;-80
2023/09/20 06:31:13;;;;;;;10.18;3.58;;;16.20;99.90;;;;;;4996501;28;20064;-80
2023/09/20 06:33:40;;;;;;;12.18;4.07;;;16.20;99.90;;;;;;4995700;28;20037;-79
2023/09/20 06:36:05;;;;;;;7.93;3.47;;;16.20;99.90;;;;;;4991259;28;20049;-80
2023/09/20 06:38:34;;;;;;;9.00;3.28;;;16.30;99.90;;;;;;4979420;28;20037;-80
2023/09/20 06:41:00;;;;;;;9.13;3.67;;;16.30;99.90;;;;;;4994079;28;20095;-81
2023/09/20 06:43:26;;;;;;;9.00;3.40;;;16.40;99.90;;;;;;5002965;28;20035;-80
2023/09/20 06:45:52;;;;;;;9.88;3.67;;;16.40;99.90;;;;;;4981946;28;20045;-79
2023/09/20 06:48:22;;;;;;;8.15;3.30;;;16.40;99.90;;;;;;4990263;28;20445;-81
2023/09/20 06:50:55;;;;;;;11.38;3.60;;;16.50;99.90;;;;;;4994453;28;20046;-82
2023/09/20 06:53:23;;;;;;;14.90;3.70;;;16.50;99.90;;;;;;5008789;28;20459;-81
2023/09/20 06:55:49;;;;;;;17.50;4.65;;;16.50;99.90;;;;;;4993051;28;20517;-81
2023/09/20 06:58:15;;;;;;;9.95;3.50;;;16.60;99.90;;;;;;4993793;28;20533;-81
2023/09/20 07:00:41;;;;;;;9.35;3.60;;;16.60;99.90;;;;;;4990676;28;20520;-81
2023/09/20 07:03:08;;;;;;;8.05;3.47;;;16.70;99.90;;;;;;4992924;28;20034;-81
2023/09/20 07:05:33;;;;;;;9.65;3.55;;;16.70;99.90;;;;;;4975616;28;20056;-80
2023/09/20 07:08:00;;;;;;;10.88;3.70;;;16.70;99.90;;;;;;4992228;28;20493;-81
2023/09/20 07:10:27;;;;;;;10.02;3.58;;;16.70;99.90;;;;;;4991464;28;20128;-79
2023/09/20 07:12:56;;;;;;;11.15;4.00;;;16.70;99.90;;;;;;4993763;28;20049;-81
2023/09/20 07:15:24;;;;;;;8.13;3.28;;;16.70;99.90;;;;;;4991694;28;20046;-81
2023/09/20 07:17:58;;;;;;;9.05;3.38;;;16.80;99.90;;;;;;5011318;28;20049;-81
2023/09/20 07:20:28;;;;;;;8.60;3.40;;;16.80;99.90;;;;;;4993518;28;20108;-81
2023/09/20 07:22:54;;;;;;;10.40;3.33;;;16.80;99.90;;;;;;4993773;28;20052;-81
2023/09/20 07:25:27;;;;;;;7.30;3.60;;;16.80;99.90;;;;;;4993404;28;20042;-81
2023/09/20 07:27:55;;;;;;;8.48;3.30;;;16.90;99.90;;;;;;4993767;28;20390;-81
2023/09/20 07:30:22;;;;;;;11.55;3.90;;;17.00;99.90;;;;;;4991374;28;20445;-82
2023/09/20 07:32:50;;;;;;;10.57;3.47;;;17.10;99.90;;;;;;4993504;28;20493;-81
2023/09/20 07:35:25;;;;;;;8.77;3.92;;;17.20;99.90;;;;;;4992612;28;20045;-82
2023/09/20 07:37:56;;;;;;;8.80;3.00;;;17.40;99.90;;;;;;4993774;28;20375;-80
2023/09/20 07:40:28;;;;;;;11.02;3.20;;;17.50;99.90;;;;;;5004038;28;20069;-81
2023/09/20 07:43:04;;;;;;;10.30;3.83;;;17.60;99.90;;;;;;4993356;28;20049;-81
2023/09/20 07:45:38;;;;;;;10.23;3.60;;;17.70;99.90;;;;;;4993853;28;20048;-81
2023/09/20 07:48:13;;;;;;;10.43;3.97;;;17.70;99.90;;;;;;4989137;28;20516;-82
2023/09/20 07:50:45;;;;;;;9.48;3.22;;;17.80;99.90;;;;;;4991065;28;20045;-81
2023/09/20 07:53:11;;;;;;;11.07;4.13;;;17.80;99.90;;;;;;4993359;28;20053;-81
2023/09/20 07:55:45;;;;;;;9.23;3.25;;;17.80;99.90;;;;;;4980180;28;20116;-80
2023/09/20 07:58:13;;;;;;;9.35;3.33;;;17.80;99.90;;;;;;4994285;28;20045;-81
2023/09/20 08:00:44;;;;;;;10.43;3.13;;;17.90;99.90;;;;;;4981357;28;20041;-80
2023/09/20 08:03:12;;;;;;;13.65;3.92;;;17.80;99.90;;;;;;4997578;28;20034;-81
2023/09/20 08:05:39;;;;;;;10.20;3.75;;;17.80;99.90;;;;;;4990051;28;20513;-81
2023/09/20 08:08:08;;;;;;;6.70;3.25;;;17.80;99.90;;;;;;4997198;28;20052;-82
2023/09/20 08:10:35;;;;;;;9.27;3.65;;;17.80;99.90;;;;;;4997286;28;20049;-80
2023/09/20 08:13:03;;;;;;;10.55;3.50;;;17.80;99.90;;;;;;4997118;28;20050;-81
2023/09/20 08:15:32;;;;;;;10.80;3.83;;;17.80;99.90;;;;;;4996946;28;20041;-81
2023/09/20 08:20:42;;;;;;;12.73;3.95;;;17.80;99.90;;;;;;4996288;28;20057;-80
2023/09/20 09:01:38;;;;;;;8.60;2.90;;;18.20;99.90;;;;;;4995815;28;20046;-81
2023/09/20 09:04:08;;;;;;;8.40;3.30;;;18.20;99.90;;;;;;4994824;28;20113;-81
2023/09/20 09:06:35;;;;;;;6.75;3.00;;;18.20;99.90;;;;;;5008534;23;20371;-77
2023/09/20 09:09:02;;;;;;;7.25;2.90;;;18.30;99.90;;;;;;4993490;28;20042;-77
2023/09/20 09:11:28;;;;;;;8.55;2.85;;;18.70;99.90;;;;;;4993844;28;20482;-77
2023/09/20 09:13:58;;;;;;;8.73;3.38;;;18.70;99.90;;;;;;4995093;28;20442;-77
2023/09/20 09:16:26;;;;;;;7.55;3.08;;;18.30;99.90;;;;;;4992230;28;20065;-77
2023/09/20 09:22:17;;;;;;;7.20;2.92;;;18.30;99.90;;;;;;4977467;28;20038;-77
2023/09/20 09:24:48;;;;;;;5.60;3.05;;;18.20;99.90;;;;;;4973796;28;20403;-77
2023/09/20 09:27:15;;;;;;;7.82;2.95;;;19.00;99.90;;;;;;4962990;28;20035;-78
2023/09/20 09:29:44;;;;;;;7.30;2.70;;;19.10;99.90;;;;;;4957344;28;20070;-77
2023/09/20 09:32:13;;;;;;;9.88;2.92;;;18.80;99.90;;;;;;4976746;28;20474;-77
2023/09/20 09:34:42;;;;;;;7.75;2.63;;;18.50;99.90;;;;;;4981164;28;20510;-77
2023/09/20 09:37:10;;;;;;;9.65;2.80;;;18.60;99.90;;;;;;4961484;28;20073;-77
2023/09/20 09:39:36;;;;;;;7.00;2.50;;;19.00;99.90;;;;;;4972728;28;20039;-77
2023/09/20 09:42:02;;;;;;;6.63;2.50;;;19.20;99.90;;;;;;4974442;28;20052;-78
2023/09/20 09:44:28;;;;;;;6.65;2.38;;;18.70;99.90;;;;;;4975882;28;20039;-77
2023/09/20 09:46:57;;;;;;;4.03;2.30;;;18.80;99.90;;;;;;4957778;28;20034;-77
2023/09/20 09:49:24;;;;;;;8.00;2.80;;;18.70;99.90;;;;;;4975557;28;20090;-77
2023/09/20 09:51:51;;;;;;;6.97;2.85;;;18.70;99.90;;;;;;4973508;28;20054;-78
2023/09/20 09:54:35;;;;;;;6.78;2.63;;;18.70;99.90;;;;;;4974650;28;20047;-77
2023/09/20 09:57:01;;;;;;;6.72;2.45;;;18.70;99.90;;;;;;4974725;28;20521;-77
2023/09/20 09:59:26;;;;;;;8.50;2.80;;;18.70;99.90;;;;;;4975031;28;20047;-77
2023/09/20 10:01:55;;;;;;;7.80;2.63;;;18.90;99.90;;;;;;4974644;28;20503;-77
2023/09/20 10:04:22;;;;;;;4.78;2.35;;;19.00;99.90;;;;;;4975188;28;20034;-77
2023/09/20 10:07:09;;;;;;;5.43;2.50;;;19.00;99.90;;;;;;4965756;28;20495;-77
2023/09/20 10:09:43;;;;;;;5.93;2.28;;;18.90;99.90;;;;;;4975152;28;20049;-77
2023/09/20 10:12:10;;;;;;;6.20;2.60;;;18.70;99.90;;;;;;4974339;28;20046;-77
2023/09/20 10:14:41;;;;;;;5.88;2.70;;;19.20;99.90;;;;;;4978658;28;20545;-77
2023/09/20 10:17:09;;;;;;;5.70;2.22;;;19.10;99.90;;;;;;4976292;28;20387;-77
2023/09/20 10:19:36;;;;;;;7.32;2.47;;;18.70;99.90;;;;;;4974139;28;20054;-77
2023/09/20 10:22:08;;;;;;;4.20;2.20;;;18.70;99.90;;;;;;4974070;28;20047;-78
2023/09/20 10:24:50;;;;;;;4.32;2.20;;;18.70;99.90;;;;;;4975026;28;20513;-78
2023/09/20 10:27:19;;;;;;;7.53;2.35;;;18.70;99.90;;;;;;4974789;28;20086;-77
2023/09/20 10:30:10;;;;;;;8.40;2.50;;;18.70;99.90;;;;;;4973537;28;20063;-77
2023/09/20 10:32:57;;;;;;;5.55;2.20;;;18.80;99.90;;;;;;4991224;28;20384;-77
2023/09/20 10:35:30;;;;;;;7.03;2.50;;;19.10;99.90;;;;;;4949942;28;20098;-78
2023/09/20 10:38:08;;;;;;;5.00;2.92;;;19.10;99.90;;;;;;4973669;28;20487;-77
2023/09/20 10:41:07;;;;;;;5.50;2.20;;;19.20;99.90;;;;;;4979883;28;20046;-77
2023/09/20 10:43:37;;;;;;;4.60;2.40;;;18.70;99.90;;;;;;4972100;28;20054;-77
2023/09/20 10:46:07;;;;;;;5.18;2.08;;;19.70;99.90;;;;;;4973163;28;20106;-77
2023/09/20 10:48:33;;;;;;;7.38;2.25;;;19.20;99.90;;;;;;4957289;28;20057;-77
2023/09/20 10:51:03;;;;;;;5.47;2.03;;;19.10;99.90;;;;;;4978900;28;20477;-77
2023/09/20 10:53:44;;;;;;;5.30;2.28;;;18.80;99.90;;;;;;4958604;28;20043;-77
2023/09/20 10:56:47;;;;;;;7.55;2.75;;;18.90;99.90;;;;;;4975787;28;20046;-77
2023/09/20 10:59:25;;;;;;;4.65;2.40;;;18.90;99.90;;;;;;4967376;28;20126;-77
2023/09/20 11:02:05;;;;;;;5.30;2.35;;;18.90;99.90;;;;;;4975906;28;20050;-77
2023/09/20 11:04:31;;;;;;;4.75;2.45;;;19.00;99.90;;;;;;4977249;28;20720;-77
2023/09/20 11:06:59;;;;;;;4.57;2.22;;;19.00;99.90;;;;;;4979819;28;20038;-77
2023/09/20 11:09:31;;;;;;;7.20;2.60;;;19.10;99.90;;;;;;4974434;28;20561;-77
2023/09/20 11:12:04;;;;;;;7.82;2.58;;;19.10;99.90;;;;;;4982657;28;20066;-77
2023/09/20 11:14:31;;;;;;;7.15;2.55;;;19.10;99.90;;;;;;4974886;28;20031;-77
2023/09/20 11:17:00;;;;;;;5.72;2.63;;;19.20;99.90;;;;;;4964531;28;20475;-77
2023/09/20 11:19:26;;;;;;;4.43;2.33;;;19.20;99.90;;;;;;4972524;28;20043;-77
2023/09/20 11:21:56;;;;;;;6.07;2.53;;;19.20;99.90;;;;;;4984428;28;20104;-77
2023/09/20 11:24:27;;;;;;;5.03;2.72;;;19.60;99.90;;;;;;4977625;28;20093;-77
2023/09/20 11:26:56;;;;;;;5.57;2.77;;;19.30;99.90;;;;;;4983690;28;20042;-77
2023/09/20 11:29:31;;;;;;;6.78;2.78;;;19.70;99.90;;;;;;4977401;28;20067;-77
2023/09/20 11:31:58;;;;;;;6.65;2.50;;;19.40;99.90;;;;;;4977322;28;20054;-78
2023/09/20 11:34:28;;;;;;;8.90;2.80;;;19.80;99.90;;;;;;4974329;28;20415;-78
2023/09/20 11:36:57;;;;;;;5.90;2.70;;;19.80;99.90;;;;;;4975605;28;20049;-78
2023/09/20 11:39:29;;;;;;;9.98;3.33;;;20.10;99.90;;;;;;4982402;28;20122;-77
2023/09/20 11:42:05;;;;;;;;;;;20.50;99.90;;;;;;4978216;28;20035;-77
2023/09/20 11:44:37;;;;;;;7.13;3.00;;;20.30;99.90;;;;;;4976243;28;19918;-77
2023/09/20 11:47:05;;;;;;;7.28;3.47;;;20.30;99.90;;;;;;4973730;28;20043;-77
2023/09/20 11:49:34;;;;;;;7.53;3.10;;;20.60;99.90;;;;;;4972272;28;20058;-77
2023/09/20 11:52:01;;;;;;;8.07;3.58;;;20.80;99.90;;;;;;4976474;28;20129;-77
2023/09/20 11:54:44;;;;;;;6.75;3.30;;;21.10;99.90;;;;;;4977209;28;20035;-77
2023/09/20 11:57:18;;;;;;;7.07;3.45;;;20.90;99.90;;;;;;4957694;28;20104;-77
2023/09/20 11:59:47;;;;;;;7.45;3.58;;;20.90;99.90;;;;;;4975376;28;20047;-78
2023/09/20 12:02:13;;;;;;;8.60;3.30;;;20.80;99.90;;;;;;4956788;28;20558;-77
2023/09/20 12:04:39;;;;;;;8.57;4.40;;;20.80;99.90;;;;;;4956556;28;20039;-77
2023/09/20 12:07:07;;;;;;;7.43;3.50;;;21.20;99.90;;;;;;4963961;28;20046;-77
2023/09/20 12:09:35;;;;;;;7.82;3.42;;;21.20;99.90;;;;;;4972992;28;20053;-77
2023/09/20 12:12:04;;;;;;;8.40;3.38;;;21.00;99.90;;;;;;4972850;28;20090;-77
2023/09/20 12:14:31;;;;;;;6.55;3.28;;;21.30;99.90;;;;;;4971451;28;20050;-77
2023/09/20 12:16:57;;;;;;;7.15;3.47;;;21.50;99.90;;;;;;4974505;28;20074;-77
2023/09/20 12:19:22;;;;;;;7.85;3.20;;;21.40;99.90;;;;;;4971304;28;20082;-77
2023/09/20 12:21:49;;;;;;;8.55;3.30;;;21.30;99.90;;;;;;4972233;28;20039;-77
2023/09/20 12:24:15;;;;;;;8.90;3.30;;;21.30;99.90;;;;;;4974451;28;20046;-77
2023/09/20 12:26:41;;;;;;;9.35;3.55;;;21.40;99.90;;;;;;4973873;28;20372;-77
2023/09/20 12:29:08;;;;;;;7.13;3.45;;;22.00;99.90;;;;;;4970434;28;20543;-77
2023/09/20 12:31:36;;;;;;;6.63;3.05;;;21.40;99.90;;;;;;4971009;28;20058;-78
2023/09/20 12:34:01;;;;;;;6.50;3.20;;;21.40;99.90;;;;;;4951320;28;20039;-77
2023/09/20 12:36:30;;;;;;;6.15;3.22;;;21.30;99.90;;;;;;4983118;28;20046;-77
2023/09/20 12:38:56;;;;;;;6.68;3.10;;;21.20;99.90;;;;;;4969393;28;20094;-77
2023/09/20 12:41:24;;;;;;;6.72;3.40;;;21.20;99.90;;;;;;4975688;28;20038;-77
2023/09/20 12:43:54;;;;;;;9.20;3.80;;;21.10;99.90;;;;;;4974329;28;21609;-77
2023/09/20 12:46:21;;;;;;;5.70;3.20;;;21.00;99.90;;;;;;4977807;28;20134;-77
2023/09/20 12:48:48;;;;;;;5.07;2.97;;;21.00;99.90;;;;;;4975200;28;20471;-77
2023/09/20 12:51:17;;;;;;;5.90;3.67;;;20.90;99.90;;;;;;4972580;28;20117;-77
2023/09/20 12:53:52;;;;;;;7.03;2.85;;;21.00;99.90;;;;;;4977716;28;20034;-77
2023/09/20 12:56:17;;;;;;;7.35;3.15;;;21.00;99.90;;;;;;4975446;28;20118;-77
2023/09/20 12:58:43;;;;;;;6.78;2.88;;;21.10;99.90;;;;;;4974618;28;20538;-78
2023/09/20 13:01:12;;;;;;;6.45;2.90;;;21.30;99.90;;;;;;4981972;28;20084;-78
2023/09/20 13:03:44;;;;;;;7.80;3.08;;;21.00;99.90;;;;;;4958508;28;20495;-78
2023/09/20 13:06:20;;;;;;;5.78;2.92;;;21.40;99.90;;;;;;4994406;28;20402;-78
2023/09/20 13:08:47;;;;;;;8.02;3.10;;;21.30;99.90;;;;;;4970051;28;20126;-78
2023/09/20 13:11:14;;;;;;;6.10;2.72;;;21.90;99.90;;;;;;4974908;28;20058;-78
2023/09/20 13:13:42;;;;;;;6.93;2.85;;;21.90;99.90;;;;;;4958617;28;20407;-78
2023/09/20 13:16:12;;;;;;;8.35;2.90;;;21.80;99.90;;;;;;4977419;28;20061;-78
2023/09/20 13:18:38;;;;;;;5.15;2.65;;;21.40;99.90;;;;;;4963136;28;20411;-77
2023/09/20 13:21:04;;;;;;;5.35;2.63;;;21.70;99.90;;;;;;4976749;28;20134;-78
2023/09/20 13:23:31;;;;;;;7.25;2.50;;;21.40;99.90;;;;;;4978886;28;20446;-78
2023/09/20 13:25:57;;;;;;;5.32;2.90;;;21.70;99.90;;;;;;4974150;28;20039;-78
2023/09/20 13:28:22;;;;;;;5.68;2.70;;;21.60;99.90;;;;;;4977455;28;20039;-78
2023/09/20 13:30:52;;;;;;;5.90;2.83;;;21.50;99.90;;;;;;4951624;28;20051;-78
2023/09/20 13:33:18;;;;;;;5.80;3.10;;;21.30;99.90;;;;;;4973640;28;20043;-77
2023/09/20 13:35:44;;;;;;;5.00;2.42;;;21.10;99.90;;;;;;4974642;28;20055;-78